Time;durP1;ratioP1;P1;durP2;ratioP2;P2;SDS_P1;SDS_P2;PMS_P1;PMS_P2;Temp;Humidity;BMP_temperature;BMP_pressure;BME280_temperature;BME280_humidity;BME280_pressure;Samples;Min_cycle;Max_cycle;Signal;HPM_P1;HPM_P2
2022/08/22 00:02:13;;;;;;;8.93;5.13;;;15.10;99.90;;;;;;5054603;28;20029;-95
2022/08/22 00:05:04;;;;;;;8.82;3.70;;;15.10;99.90;;;;;;5015705;28;20037;-94
2022/08/22 00:07:55;;;;;;;9.90;3.83;;;15.10;99.90;;;;;;5054702;28;20487;-95
2022/08/22 00:10:37;;;;;;;12.48;3.92;;;15.10;99.90;;;;;;5054998;28;20029;-96
2022/08/22 00:13:30;;;;;;;8.20;3.97;;;15.10;99.90;;;;;;5054410;28;20492;-93
2022/08/22 00:16:04;;;;;;;8.52;4.40;;;15.10;99.90;;;;;;5054618;28;20017;-92
2022/08/22 00:19:01;;;;;;;8.32;4.05;;;15.10;99.90;;;;;;5054697;28;20041;-93
2022/08/22 00:21:42;;;;;;;7.78;3.60;;;15.10;99.90;;;;;;5054230;28;20040;-92
2022/08/22 00:24:07;;;;;;;;;;;15.10;99.90;;;;;;5054863;28;20056;-93
2022/08/22 00:27:08;;;;;;;6.47;3.50;;;15.10;99.90;;;;;;5054277;28;19913;-92
2022/08/22 00:29:51;;;;;;;9.35;3.90;;;15.10;99.90;;;;;;5037825;28;20060;-94
2022/08/22 00:32:19;;;;;;;8.77;4.50;;;15.10;99.90;;;;;;5055097;28;20086;-90
2022/08/22 00:34:57;;;;;;;7.00;3.53;;;15.10;99.90;;;;;;5065892;28;20029;-93
2022/08/22 00:37:38;;;;;;;22.58;8.27;;;15.10;99.90;;;;;;5059812;28;20059;-94
2022/08/22 00:40:20;;;;;;;;;;;15.10;99.90;;;;;;5056758;28;20032;-93
2022/08/22 00:43:15;;;;;;;6.35;3.80;;;15.10;99.90;;;;;;5060684;28;19909;-93
2022/08/22 00:45:56;;;;;;;6.55;3.88;;;15.10;99.90;;;;;;5054586;28;20052;-93
2022/08/22 00:48:41;;;;;;;8.52;3.50;;;15.20;99.90;;;;;;5059622;28;20025;-92
2022/08/22 00:51:13;;;;;;;7.30;3.70;;;15.20;99.90;;;;;;5055373;28;20029;-93
2022/08/22 00:53:59;;;;;;;6.03;3.10;;;15.20;99.90;;;;;;5053747;28;20049;-91
2022/08/22 00:56:41;;;;;;;11.07;3.30;;;15.20;99.90;;;;;;5053159;28;20021;-92
2022/08/22 00:59:33;;;;;;;7.20;3.38;;;15.20;99.90;;;;;;5053443;28;20127;-91
2022/08/22 01:02:26;;;;;;;7.90;3.78;;;15.20;99.90;;;;;;5054060;28;20054;-93
2022/08/22 01:05:01;;;;;;;7.85;3.47;;;15.20;99.90;;;;;;5053091;28;20541;-94
2022/08/22 01:07:50;;;;;;;6.40;3.60;;;15.20;99.90;;;;;;5053329;28;20055;-94
2022/08/22 01:10:31;;;;;;;7.20;3.17;;;15.20;99.90;;;;;;5054098;28;20545;-92
2022/08/22 01:13:09;;;;;;;5.68;3.40;;;15.20;99.90;;;;;;5054436;28;20033;-94
2022/08/22 01:15:39;;;;;;;10.68;4.15;;;15.20;99.90;;;;;;5054782;28;20033;-93
2022/08/22 01:18:20;;;;;;;5.38;3.42;;;15.20;99.90;;;;;;5056743;28;20428;-93
2022/08/22 01:21:01;;;;;;;7.10;3.35;;;15.10;99.90;;;;;;5059642;28;20025;-93
2022/08/22 01:23:38;;;;;;;5.03;3.10;;;15.20;99.90;;;;;;5063692;28;20052;-92
2022/08/22 01:26:39;;;;;;;8.77;3.15;;;15.10;99.90;;;;;;5062679;28;20076;-93
2022/08/22 01:29:10;;;;;;;13.30;4.40;;;15.10;99.90;;;;;;5046326;28;20059;-93
2022/08/22 01:31:51;;;;;;;6.63;4.40;;;15.10;99.90;;;;;;5054005;28;20032;-91
2022/08/22 01:34:58;;;;;;;9.40;4.05;;;15.00;99.90;;;;;;5056000;28;20428;-91
2022/08/22 01:37:27;;;;;;;5.35;3.55;;;15.00;99.90;;;;;;5044025;28;20053;-93
2022/08/22 01:40:15;;;;;;;7.20;4.20;;;15.00;99.90;;;;;;5056708;28;20102;-92
2022/08/22 01:42:47;;;;;;;8.93;4.50;;;15.00;99.90;;;;;;5056817;28;20017;-93
2022/08/22 01:45:22;;;;;;;6.68;4.18;;;14.90;99.90;;;;;;5057753;28;20025;-92
2022/08/22 01:48:06;;;;;;;6.82;4.18;;;14.90;99.90;;;;;;5056405;28;20037;-93
2022/08/22 01:50:45;;;;;;;8.38;4.30;;;14.90;99.90;;;;;;5056478;28;20059;-93
2022/08/22 01:53:22;;;;;;;8.18;4.07;;;14.90;99.90;;;;;;5056264;28;20498;-92
2022/08/22 01:56:05;;;;;;;8.60;3.75;;;14.90;99.90;;;;;;5056953;28;20108;-93
2022/08/22 01:58:34;;;;;;;7.20;3.83;;;14.80;99.90;;;;;;5056351;28;20033;-94
2022/08/22 02:01:09;;;;;;;6.25;3.80;;;14.80;99.90;;;;;;5056283;28;20109;-91
2022/08/22 02:03:38;;;;;;;6.70;3.25;;;14.80;99.90;;;;;;5056551;28;20028;-93
2022/08/22 02:06:16;;;;;;;9.35;3.72;;;14.80;99.90;;;;;;5056439;28;20029;-91
2022/08/22 02:08:49;;;;;;;5.22;3.70;;;14.80;99.90;;;;;;5057417;28;20028;-91
2022/08/22 02:11:37;;;;;;;6.90;3.60;;;14.80;99.90;;;;;;5056377;28;20052;-93
2022/08/22 02:14:22;;;;;;;6.47;3.08;;;14.80;99.90;;;;;;5064212;28;20171;-91
2022/08/22 02:16:54;;;;;;;6.35;2.47;;;14.70;99.90;;;;;;5057508;28;20182;-93
2022/08/22 02:19:29;;;;;;;5.22;2.72;;;14.70;99.90;;;;;;5055771;28;20021;-92
2022/08/22 02:21:59;;;;;;;6.93;2.33;;;14.70;99.90;;;;;;5056035;28;20032;-91
2022/08/22 02:24:48;;;;;;;4.43;2.10;;;14.60;99.90;;;;;;5039131;28;20191;-91
2022/08/22 02:27:36;;;;;;;5.07;2.53;;;14.60;99.90;;;;;;5056056;28;20051;-91
2022/08/22 02:30:02;;;;;;;7.38;2.92;;;14.50;99.90;;;;;;5056285;28;20028;-90
2022/08/22 02:32:40;;;;;;;4.72;2.60;;;14.50;99.90;;;;;;5055955;28;20056;-91
2022/08/22 02:35:13;;;;;;;8.02;2.65;;;14.40;99.90;;;;;;5063279;28;20006;-91
2022/08/22 02:37:54;;;;;;;6.25;3.17;;;14.40;99.90;;;;;;5064459;28;20028;-92
2022/08/22 02:40:33;;;;;;;5.88;4.20;;;14.30;99.90;;;;;;5055768;28;20057;-94
2022/08/22 02:43:19;;;;;;;6.63;3.00;;;14.30;99.90;;;;;;5056735;28;20035;-92
2022/08/22 02:45:48;;;;;;;11.05;3.42;;;14.30;99.90;;;;;;5056315;28;20052;-92
2022/08/22 02:48:32;;;;;;;8.60;2.70;;;14.20;99.90;;;;;;5055431;28;20037;-92
2022/08/22 02:51:09;;;;;;;5.25;2.78;;;14.20;99.90;;;;;;5055364;28;20161;-91
2022/08/22 02:53:52;;;;;;;2.95;2.08;;;14.20;99.90;;;;;;5055838;28;20035;-92
2022/08/22 02:56:43;;;;;;;6.53;2.55;;;14.20;99.90;;;;;;5055439;28;20036;-92
2022/08/22 02:59:25;;;;;;;2.53;2.30;;;14.10;99.90;;;;;;5055421;28;20517;-90
2022/08/22 03:01:51;;;;;;;5.90;2.70;;;14.00;99.90;;;;;;5055186;28;20037;-92
2022/08/22 03:04:29;;;;;;;5.22;2.00;;;14.00;99.90;;;;;;5055003;28;20025;-91
2022/08/22 03:07:04;;;;;;;4.40;2.63;;;14.00;99.90;;;;;;5055195;28;20033;-92
2022/08/22 03:09:35;;;;;;;7.80;2.92;;;13.90;99.90;;;;;;5054804;28;20021;-93
2022/08/22 03:12:28;;;;;;;7.70;2.80;;;13.90;99.90;;;;;;5054739;28;20402;-92
2022/08/22 03:15:11;;;;;;;4.80;2.50;;;13.80;99.90;;;;;;5054946;28;20025;-92
2022/08/22 03:17:52;;;;;;;4.78;2.88;;;13.80;99.90;;;;;;5054987;28;20092;-93
2022/08/22 03:20:38;;;;;;;6.68;3.28;;;13.80;99.90;;;;;;5054686;28;20216;-92
2022/08/22 03:23:09;;;;;;;3.70;2.90;;;13.80;99.90;;;;;;5054936;28;20053;-92
2022/08/22 03:26:02;;;;;;;5.43;2.97;;;13.70;99.90;;;;;;5054566;28;20033;-92
2022/08/22 03:28:36;;;;;;;6.40;3.28;;;13.70;99.90;;;;;;5054834;28;20491;-92
2022/08/22 03:31:21;;;;;;;7.72;4.03;;;13.70;99.90;;;;;;5054406;28;20115;-92
2022/08/22 03:34:22;;;;;;;9.80;4.20;;;13.70;99.90;;;;;;5054595;28;20036;-93
2022/08/22 03:37:34;;;;;;;8.25;3.47;;;13.70;99.90;;;;;;5054372;28;20112;-92
2022/08/22 03:40:02;;;;;;;7.13;3.67;;;13.70;99.90;;;;;;5054339;28;20037;-91
2022/08/22 03:43:14;;;;;;;7.28;3.97;;;13.60;99.90;;;;;;5054166;28;20483;-91
2022/08/22 03:45:58;;;;;;;8.70;3.80;;;13.60;99.90;;;;;;5061423;28;20017;-91
2022/08/22 03:48:53;;;;;;;5.88;3.40;;;13.60;99.90;;;;;;5062439;28;20118;-91
2022/08/22 03:51:31;;;;;;;7.28;3.65;;;13.60;99.90;;;;;;5054804;28;20029;-91
2022/08/22 03:54:06;;;;;;;5.85;3.95;;;13.50;99.90;;;;;;5054087;28;20139;-92
2022/08/22 03:56:41;;;;;;;7.40;3.72;;;13.50;99.90;;;;;;5052969;28;20075;-92
2022/08/22 03:59:21;;;;;;;8.27;3.60;;;13.40;99.90;;;;;;5054020;28;20037;-91
2022/08/22 04:02:11;;;;;;;8.43;4.15;;;13.40;99.90;;;;;;5053515;28;20097;-93
2022/08/22 04:05:16;;;;;;;9.10;4.27;;;13.30;99.90;;;;;;5054027;28;20021;-91
2022/08/22 04:08:06;;;;;;;5.72;4.10;;;13.30;99.90;;;;;;5030343;28;20033;-92
2022/08/22 04:10:55;;;;;;;8.80;4.03;;;13.30;99.90;;;;;;5053624;28;20032;-91
2022/08/22 04:14:14;;;;;;;6.50;3.60;;;13.40;99.90;;;;;;5053989;28;20046;-92
2022/08/22 04:16:43;;;;;;;5.95;3.90;;;13.30;99.90;;;;;;5053533;28;20028;-93
2022/08/22 04:19:12;;;;;;;7.63;3.72;;;13.30;99.90;;;;;;5053870;28;20060;-92
2022/08/22 04:22:08;;;;;;;6.35;3.38;;;13.30;99.90;;;;;;5053731;28;20040;-92
2022/08/22 04:24:49;;;;;;;5.40;3.83;;;13.30;99.90;;;;;;5054554;28;20051;-93
2022/08/22 04:27:20;;;;;;;;;;;13.30;99.90;;;;;;5074367;28;20033;-92
2022/08/22 04:29:58;;;;;;;7.57;4.25;;;13.30;99.90;;;;;;5073982;28;20163;-92
2022/08/22 04:32:48;;;;;;;5.45;4.03;;;13.20;99.90;;;;;;5055849;28;20044;-92
2022/08/22 04:35:34;;;;;;;5.47;3.35;;;13.10;99.90;;;;;;5054386;28;20108;-92
2022/08/22 04:38:11;;;;;;;9.48;4.07;;;13.00;99.90;;;;;;5061394;28;20033;-93
2022/08/22 04:40:53;;;;;;;8.18;4.13;;;13.00;99.90;;;;;;5053402;28;20104;-91
2022/08/22 04:43:36;;;;;;;6.40;4.28;;;13.00;99.90;;;;;;5069868;28;20033;-92
2022/08/22 04:46:16;;;;;;;5.68;3.58;;;12.90;99.90;;;;;;5053505;28;20017;-91
2022/08/22 04:48:54;;;;;;;7.38;4.20;;;12.90;99.90;;;;;;5053142;28;20032;-92
2022/08/22 04:51:31;;;;;;;6.68;3.60;;;12.80;99.90;;;;;;5053050;28;20523;-91
2022/08/22 04:54:16;;;;;;;7.22;4.53;;;12.80;99.90;;;;;;5053043;28;20037;-92
2022/08/22 04:57:09;;;;;;;7.78;4.63;;;12.80;99.90;;;;;;5053102;28;20021;-92
2022/08/22 04:59:35;;;;;;;7.63;4.10;;;12.80;99.90;;;;;;5053129;28;20049;-93
2022/08/22 05:02:06;;;;;;;5.18;4.30;;;12.80;99.90;;;;;;5052803;28;20025;-93
2022/08/22 05:04:35;;;;;;;;;;;12.70;99.90;;;;;;5054286;28;20499;-91
2022/08/22 05:07:24;;;;;;;6.68;4.28;;;12.70;99.90;;;;;;5053524;28;19904;-92
2022/08/22 05:10:13;;;;;;;5.65;4.43;;;12.70;99.90;;;;;;5053628;28;20025;-92
2022/08/22 05:12:44;;;;;;;5.78;4.32;;;12.70;99.90;;;;;;5037804;28;20053;-92
2022/08/22 05:15:25;;;;;;;7.72;5.03;;;12.70;99.90;;;;;;5069430;28;20040;-92
2022/08/22 05:17:55;;;;;;;5.65;4.38;;;12.70;99.90;;;;;;5052916;28;20024;-92
2022/08/22 05:20:24;;;;;;;7.47;4.60;;;12.70;99.90;;;;;;5061095;28;20021;-91
2022/08/22 05:22:58;;;;;;;7.45;4.93;;;12.60;99.90;;;;;;5055403;28;20063;-91
2022/08/22 05:25:31;;;;;;;7.70;5.63;;;12.60;99.90;;;;;;5053192;28;20037;-92
2022/08/22 05:28:33;;;;;;;6.15;5.18;;;12.60;99.90;;;;;;5053017;28;20025;-92
2022/08/22 05:31:02;;;;;;;10.75;5.43;;;12.60;99.90;;;;;;5027939;28;20033;-92
2022/08/22 05:33:49;;;;;;;7.35;5.45;;;12.60;99.90;;;;;;5052711;28;20044;-92
2022/08/22 05:36:23;;;;;;;7.22;5.00;;;12.60;99.90;;;;;;5053846;28;20021;-91
2022/08/22 05:39:01;;;;;;;5.45;4.80;;;12.60;99.90;;;;;;5053571;28;20025;-91
2022/08/22 05:41:31;;;;;;;8.02;5.40;;;12.60;99.90;;;;;;5053036;28;20021;-91
2022/08/22 05:43:58;;;;;;;7.78;5.38;;;12.60;99.90;;;;;;5052770;28;20073;-92
2022/08/22 05:46:47;;;;;;;8.15;4.97;;;12.60;99.90;;;;;;5052731;28;20025;-92
2022/08/22 05:49:35;;;;;;;8.00;5.00;;;12.70;99.90;;;;;;5052477;28;20025;-92
2022/08/22 05:52:06;;;;;;;10.68;4.63;;;12.70;99.90;;;;;;5052735;28;20126;-93
2022/08/22 05:54:38;;;;;;;5.22;3.95;;;12.80;99.90;;;;;;5052968;28;20040;-91
2022/08/22 05:57:38;;;;;;;7.97;4.47;;;12.80;99.90;;;;;;5053664;28;20025;-91
2022/08/22 06:00:10;;;;;;;8.80;4.25;;;12.80;99.90;;;;;;5038506;28;20029;-91
2022/08/22 06:02:41;;;;;;;6.40;4.68;;;12.90;99.90;;;;;;5052495;28;20055;-93
2022/08/22 06:05:09;;;;;;;5.25;4.20;;;13.00;99.90;;;;;;5053148;28;20029;-92
2022/08/22 06:07:46;;;;;;;7.40;4.22;;;13.00;99.90;;;;;;5056317;28;20020;-92
2022/08/22 06:10:44;;;;;;;7.53;3.92;;;13.00;99.90;;;;;;5053208;28;20074;-92
2022/08/22 06:13:22;;;;;;;6.95;4.30;;;13.00;99.90;;;;;;5052236;28;20068;-91
2022/08/22 06:16:00;;;;;;;8.18;4.88;;;13.00;99.90;;;;;;5052231;28;20021;-93
2022/08/22 06:18:27;;;;;;;8.68;4.68;;;13.10;99.90;;;;;;5052590;28;20087;-91
2022/08/22 06:21:07;;;;;;;8.68;4.97;;;13.10;99.90;;;;;;5055075;28;20025;-92
2022/08/22 06:23:45;;;;;;;8.13;4.53;;;13.10;99.90;;;;;;5056044;28;20041;-91
2022/08/22 06:26:12;;;;;;;9.75;4.43;;;13.10;99.90;;;;;;5057713;28;20029;-91
2022/08/22 06:28:46;;;;;;;11.20;5.10;;;13.10;99.90;;;;;;5057745;28;20025;-94
2022/08/22 06:31:19;;;;;;;8.52;4.55;;;13.10;99.90;;;;;;5039435;28;20029;-93
2022/08/22 06:33:54;;;;;;;10.15;5.47;;;13.10;99.90;;;;;;5056513;28;20037;-93
2022/08/22 06:36:31;;;;;;;9.38;4.70;;;13.20;99.90;;;;;;5057876;28;20029;-93
2022/08/22 06:39:09;;;;;;;8.52;5.30;;;13.20;99.90;;;;;;5060615;28;20112;-93
2022/08/22 06:41:50;;;;;;;7.20;5.13;;;13.20;99.90;;;;;;5058815;28;20053;-93
2022/08/22 06:44:25;;;;;;;7.43;5.20;;;13.30;99.90;;;;;;5057550;28;20029;-91
2022/08/22 06:46:59;;;;;;;6.35;4.75;;;13.30;99.90;;;;;;5056119;28;20033;-93
2022/08/22 06:49:29;;;;;;;8.15;4.70;;;13.30;99.90;;;;;;5055581;28;20167;-93
2022/08/22 06:52:26;;;;;;;7.47;5.10;;;13.40;99.90;;;;;;5055384;28;20075;-91
2022/08/22 06:55:10;;;;;;;7.55;4.80;;;13.40;99.90;;;;;;5054543;28;20137;-93
2022/08/22 06:57:56;;;;;;;10.45;4.90;;;13.40;99.90;;;;;;5055332;28;20025;-92
2022/08/22 07:00:28;;;;;;;8.00;5.07;;;13.50;99.90;;;;;;5055548;28;20029;-92
2022/08/22 07:03:19;;;;;;;10.27;4.70;;;13.50;99.90;;;;;;5055393;28;20021;-92
2022/08/22 07:05:57;;;;;;;14.50;5.07;;;13.60;99.90;;;;;;5055301;28;20025;-92
2022/08/22 07:08:34;;;;;;;8.48;4.88;;;13.70;99.90;;;;;;5054222;28;20037;-92
2022/08/22 07:11:34;;;;;;;9.88;5.38;;;13.70;99.90;;;;;;5055124;28;20017;-93
2022/08/22 07:14:11;;;;;;;8.75;4.60;;;13.80;99.90;;;;;;5042127;28;20347;-93
2022/08/22 07:16:54;;;;;;;6.72;4.70;;;13.80;99.90;;;;;;5055414;28;20435;-91
2022/08/22 07:19:31;;;;;;;8.85;4.57;;;13.90;99.90;;;;;;5053680;28;20040;-91
2022/08/22 07:21:59;;;;;;;8.13;4.68;;;13.90;99.90;;;;;;5054207;28;20044;-93
2022/08/22 07:24:37;;;;;;;7.80;5.25;;;13.90;99.90;;;;;;5060696;28;20067;-91
2022/08/22 07:27:23;;;;;;;12.95;4.55;;;14.00;99.90;;;;;;5058900;28;20039;-92
2022/08/22 07:30:14;;;;;;;8.18;4.95;;;14.00;99.90;;;;;;5058903;28;20496;-91
2022/08/22 07:32:58;;;;;;;8.18;4.57;;;14.10;99.90;;;;;;5054286;28;20044;-90
2022/08/22 07:35:36;;;;;;;6.65;4.65;;;14.20;99.90;;;;;;5055111;28;20258;-90
2022/08/22 07:38:29;;;;;;;9.18;5.00;;;14.40;99.90;;;;;;5039269;28;20079;-92
2022/08/22 07:41:13;;;;;;;6.78;4.68;;;14.50;99.90;;;;;;5054970;28;20021;-92
2022/08/22 07:43:52;;;;;;;6.40;4.57;;;14.70;99.90;;;;;;5054817;28;20554;-91
2022/08/22 07:46:18;;;;;;;4.80;4.13;;;14.80;99.90;;;;;;5050042;28;20033;-91
2022/08/22 07:49:01;;;;;;;7.05;4.57;;;14.90;99.90;;;;;;5054762;28;20052;-92
2022/08/22 07:51:36;;;;;;;7.00;4.68;;;15.00;99.90;;;;;;5054428;28;20047;-91
2022/08/22 07:54:08;;;;;;;11.05;4.80;;;15.00;99.90;;;;;;5054616;28;20090;-92
2022/08/22 07:56:50;;;;;;;8.15;4.45;;;15.10;99.90;;;;;;5054208;28;20032;-91
2022/08/22 07:59:21;;;;;;;9.05;4.72;;;15.20;99.90;;;;;;5039044;28;20029;-90
2022/08/22 08:01:57;;;;;;;7.22;3.70;;;15.30;99.90;;;;;;5054933;28;20044;-91
2022/08/22 08:04:31;;;;;;;6.82;4.00;;;15.50;99.90;;;;;;5054304;28;20040;-92
2022/08/22 08:06:59;;;;;;;10.57;4.13;;;15.50;99.90;;;;;;5054148;28;20029;-93
2022/08/22 08:09:32;;;;;;;10.48;4.10;;;15.60;99.90;;;;;;5053728;28;20024;-91
2022/08/22 08:12:01;;;;;;;7.20;3.95;;;15.70;99.90;;;;;;5054143;28;20115;-92
2022/08/22 08:14:27;;;;;;;6.63;3.60;;;15.80;99.90;;;;;;5053448;28;20119;-92
2022/08/22 08:16:59;;;;;;;6.60;3.75;;;15.90;99.90;;;;;;5053481;28;20491;-89
2022/08/22 08:19:28;;;;;;;7.82;4.28;;;16.00;99.90;;;;;;5053661;28;20025;-89
2022/08/22 08:21:59;;;;;;;7.03;3.83;;;16.20;99.90;;;;;;5053233;28;20029;-91
2022/08/22 08:24:38;;;;;;;13.50;4.20;;;16.20;99.90;;;;;;5037285;28;20049;-91
2022/08/22 08:30:20;;;;;;;6.43;3.90;;;16.40;99.90;;;;;;5056963;28;20070;-91
2022/08/22 08:33:10;;;;;;;9.90;3.80;;;16.60;99.90;;;;;;5056348;28;20399;-92
2022/08/22 08:35:45;;;;;;;11.35;3.90;;;16.70;99.90;;;;;;5042325;28;20036;-92
2022/08/22 08:38:50;;;;;;;6.78;3.38;;;16.80;99.90;;;;;;5052690;28;20025;-91
2022/08/22 08:41:55;;;;;;;8.15;3.95;;;17.10;99.90;;;;;;5064478;28;20064;-92
2022/08/22 08:45:03;;;;;;;7.63;3.22;;;17.30;99.90;;;;;;5054741;28;20033;-91
2022/08/22 08:47:44;;;;;;;6.63;3.70;;;17.50;99.90;;;;;;5056858;28;20033;-92
2022/08/22 08:50:27;;;;;;;5.75;3.28;;;17.70;99.90;;;;;;5057264;28;20123;-92
2022/08/22 08:53:25;;;;;;;4.07;2.30;;;17.90;99.90;;;;;;5053189;28;20446;-92
2022/08/22 08:56:20;;;;;;;5.22;3.00;;;18.10;99.90;;;;;;5053347;28;20045;-93
2022/08/22 08:59:09;;;;;;;6.20;2.85;;;18.20;99.90;;;;;;5053609;28;20035;-92
2022/08/22 09:02:02;;;;;;;7.22;2.80;;;18.40;99.90;;;;;;5040625;28;20480;-93
2022/08/22 09:04:47;;;;;;;7.50;3.05;;;18.60;99.90;;;;;;5053672;28;20021;-91
2022/08/22 09:07:42;;;;;;;7.07;2.60;;;18.80;99.90;;;;;;5053426;28;20112;-92
2022/08/22 09:10:23;;;;;;;6.95;3.10;;;18.90;99.90;;;;;;5053750;28;20037;-90
2022/08/22 09:13:25;;;;;;;6.72;2.45;;;19.10;99.90;;;;;;5053392;28;20100;-92
2022/08/22 09:16:07;;;;;;;6.18;2.58;;;19.10;99.90;;;;;;5053610;28;20438;-92
2022/08/22 09:18:50;;;;;;;10.18;2.95;;;19.30;99.90;;;;;;5053137;28;20395;-93
2022/08/22 09:21:40;;;;;;;8.13;2.80;;;19.50;99.90;;;;;;5052989;28;20071;-91
2022/08/22 09:24:33;;;;;;;5.32;2.40;;;19.70;99.90;;;;;;5052988;28;20083;-89
2022/08/22 09:27:04;;;;;;;9.43;2.92;;;19.90;99.90;;;;;;5052824;28;20040;-92
2022/08/22 09:29:51;;;;;;;11.45;3.58;;;20.00;99.90;;;;;;5052763;28;20025;-91
2022/08/22 09:32:35;;;;;;;9.82;2.75;;;20.10;99.90;;;;;;5052915;28;20032;-91
2022/08/22 09:35:20;;;;;;;11.75;2.60;;;20.10;99.90;;;;;;5052824;28;20032;-91
2022/08/22 09:38:04;;;;;;;8.30;2.78;;;20.20;99.90;;;;;;5053034;28;20029;-91
2022/08/22 09:40:47;;;;;;;8.45;2.60;;;20.20;99.90;;;;;;5052914;28;20025;-92
2022/08/22 09:43:17;;;;;;;7.30;2.53;;;20.30;99.90;;;;;;5053656;28;20021;-91
2022/08/22 09:45:48;;;;;;;7.95;2.42;;;20.30;99.90;;;;;;5053055;28;20049;-91
2022/08/22 09:48:36;;;;;;;3.67;2.30;;;20.30;99.90;;;;;;5053226;28;20033;-92
2022/08/22 09:51:14;;;;;;;7.53;2.70;;;20.40;99.90;;;;;;5052656;28;20075;-91
2022/08/22 09:53:52;;;;;;;7.75;2.70;;;20.40;99.90;;;;;;5053121;28;20029;-90
2022/08/22 09:56:33;;;;;;;7.80;2.40;;;20.50;99.90;;;;;;5056907;28;20472;-90
2022/08/22 09:59:30;;;;;;;9.35;2.55;;;20.50;99.90;;;;;;5056925;28;20032;-91
2022/08/22 10:02:24;;;;;;;10.48;2.58;;;20.70;99.90;;;;;;5056764;28;20021;-90
2022/08/22 10:05:19;;;;;;;3.92;2.22;;;20.80;99.90;;;;;;5057101;28;20033;-91
2022/08/22 10:07:59;;;;;;;6.53;2.40;;;20.90;99.90;;;;;;5061351;28;20040;-90
2022/08/22 10:10:40;;;;;;;9.98;2.28;;;21.00;99.90;;;;;;5057835;28;20025;-92
2022/08/22 10:13:25;;;;;;;8.20;2.60;;;21.20;99.90;;;;;;5056366;28;20120;-90
2022/08/22 10:16:11;;;;;;;9.30;2.50;;;21.30;99.90;;;;;;5056261;28;20028;-92
2022/08/22 10:18:50;;;;;;;8.30;2.50;;;21.60;99.90;;;;;;5056405;28;20074;-89
2022/08/22 10:21:38;;;;;;;6.28;2.28;;;21.60;99.90;;;;;;5063016;28;20025;-89
2022/08/22 10:24:41;;;;;;;8.57;2.45;;;21.70;99.80;;;;;;5066920;28;20052;-91
2022/08/22 10:27:15;;;;;;;9.15;2.35;;;21.70;99.00;;;;;;5058888;28;20037;-90
2022/08/22 10:30:05;;;;;;;7.80;2.45;;;21.70;98.90;;;;;;5048947;28;20025;-91
2022/08/22 10:32:58;;;;;;;6.93;2.35;;;21.70;98.50;;;;;;5056107;28;20037;-91
2022/08/22 10:35:57;;;;;;;8.18;2.50;;;21.60;97.70;;;;;;5039645;28;20037;-90
2022/08/22 10:38:37;;;;;;;8.43;2.33;;;21.50;97.50;;;;;;5055776;28;20032;-90
2022/08/22 10:41:31;;;;;;;9.80;2.77;;;21.50;96.80;;;;;;5056023;28;20082;-90
2022/08/22 10:44:16;;;;;;;8.70;2.42;;;21.40;95.60;;;;;;5060694;28;20108;-90
2022/08/22 10:47:10;;;;;;;11.90;2.90;;;21.50;95.40;;;;;;5055580;28;20025;-91
2022/08/22 10:49:49;;;;;;;10.95;2.33;;;21.50;95.60;;;;;;5055225;28;20036;-89
2022/08/22 10:52:23;;;;;;;7.78;2.63;;;21.60;95.30;;;;;;5055320;28;20025;-90
2022/08/22 10:55:10;;;;;;;7.88;2.40;;;21.60;94.10;;;;;;5055494;28;20034;-90
2022/08/22 10:58:24;;;;;;;17.27;2.55;;;21.50;93.90;;;;;;5055016;28;20037;-91
2022/08/22 11:00:58;;;;;;;9.63;2.42;;;21.50;94.00;;;;;;5046733;28;20067;-90
2022/08/22 11:03:42;;;;;;;9.85;2.50;;;21.40;93.70;;;;;;5055412;28;20383;-89
2022/08/22 11:06:32;;;;;;;6.05;2.15;;;21.30;93.80;;;;;;5054497;28;20021;-90
2022/08/22 11:09:22;;;;;;;10.70;2.60;;;21.30;93.80;;;;;;5055104;28;20025;-89
2022/08/22 11:12:28;;;;;;;8.48;2.38;;;21.40;93.90;;;;;;5054748;28;20264;-90
2022/08/22 11:15:42;;;;;;;13.93;2.50;;;21.50;93.20;;;;;;4981430;28;20038;-92
2022/08/22 11:18:28;;;;;;;12.13;2.63;;;21.60;92.70;;;;;;5013699;28;20044;-90
2022/08/22 11:21:05;;;;;;;13.77;2.58;;;21.60;92.00;;;;;;5014248;28;20573;-90
2022/08/22 11:23:43;;;;;;;8.90;2.42;;;21.70;91.70;;;;;;5013910;28;20057;-91
2022/08/22 11:26:37;;;;;;;6.95;2.63;;;21.80;91.60;;;;;;5017728;28;20046;-88
2022/08/22 11:29:18;;;;;;;9.85;2.80;;;22.00;91.80;;;;;;5016491;28;20121;-91
2022/08/22 11:31:53;;;;;;;15.65;2.92;;;22.40;91.00;;;;;;5013774;28;20513;-90
2022/08/22 11:34:38;;;;;;;7.80;2.40;;;22.60;89.90;;;;;;5014188;28;20125;-91
2022/08/22 11:37:12;;;;;;;11.00;2.80;;;22.70;87.80;;;;;;5013230;28;20132;-89
2022/08/22 11:39:56;;;;;;;10.48;2.95;;;22.90;86.70;;;;;;5013523;28;20022;-90
2022/08/22 11:43:00;;;;;;;9.45;3.28;;;22.90;84.20;;;;;;5013822;28;20038;-90
2022/08/22 11:45:34;;;;;;;8.02;2.40;;;22.90;82.70;;;;;;4993741;28;20129;-92
2022/08/22 11:48:25;;;;;;;9.98;2.78;;;22.90;82.40;;;;;;4993965;28;20042;-91
2022/08/22 11:51:17;;;;;;;9.25;2.75;;;22.80;81.80;;;;;;5001327;28;20041;-91
2022/08/22 11:54:06;;;;;;;8.10;2.63;;;23.00;82.00;;;;;;4994218;28;20436;-91
2022/08/22 11:56:47;;;;;;;8.43;2.65;;;23.00;80.80;;;;;;4996916;28;20029;-90
2022/08/22 11:59:51;;;;;;;15.48;3.00;;;23.00;79.70;;;;;;4997127;28;20128;-91
2022/08/22 12:02:24;;;;;;;7.03;2.30;;;23.00;78.40;;;;;;4938886;29;20067;-90
2022/08/22 12:05:14;;;;;;;12.30;2.65;;;23.00;77.30;;;;;;4938930;29;20035;-90
2022/08/22 12:07:47;;;;;;;11.43;3.13;;;23.00;76.90;;;;;;4932229;29;20045;-91
2022/08/22 12:10:20;;;;;;;13.85;3.10;;;23.00;76.50;;;;;;4938588;29;20054;-92
2022/08/22 12:12:59;;;;;;;7.32;2.35;;;23.00;76.40;;;;;;4938682;29;20043;-91
2022/08/22 12:15:47;;;;;;;10.95;2.35;;;23.00;76.40;;;;;;4938818;29;20118;-91
2022/08/22 12:18:41;;;;;;;9.18;2.50;;;23.00;76.50;;;;;;4937891;29;20027;-91
2022/08/22 12:21:31;;;;;;;7.57;2.25;;;23.00;76.20;;;;;;4949466;28;20035;-92
2022/08/22 12:24:14;;;;;;;6.07;2.20;;;22.90;75.20;;;;;;4969567;28;20038;-90
2022/08/22 12:26:48;;;;;;;6.18;2.28;;;22.80;75.50;;;;;;4957455;28;20170;-90
2022/08/22 12:29:58;;;;;;;9.32;2.67;;;22.70;74.50;;;;;;4957342;28;20039;-90
2022/08/22 12:33:01;;;;;;;9.55;2.72;;;22.60;74.30;;;;;;4957490;28;20034;-91
2022/08/22 12:35:30;;;;;;;8.02;2.40;;;22.60;74.30;;;;;;4970921;28;20036;-90
2022/08/22 12:38:17;;;;;;;7.43;2.47;;;22.40;74.00;;;;;;5053050;28;20017;-91
2022/08/22 12:41:04;;;;;;;9.80;2.25;;;22.40;74.40;;;;;;5053318;28;20112;-93
2022/08/22 12:43:42;;;;;;;8.18;2.63;;;22.40;74.50;;;;;;5053298;28;20021;-91
2022/08/22 12:46:34;;;;;;;5.43;2.03;;;22.30;74.60;;;;;;5065209;28;20040;-91
2022/08/22 12:49:09;;;;;;;8.00;2.83;;;22.40;74.50;;;;;;5055378;28;20486;-91
2022/08/22 12:51:49;;;;;;;7.82;2.70;;;22.50;74.00;;;;;;5054105;28;20040;-92
2022/08/22 12:54:43;;;;;;;5.35;2.47;;;22.50;73.50;;;;;;5053717;28;20067;-90
2022/08/22 12:57:18;;;;;;;10.32;2.67;;;22.50;73.50;;;;;;5053228;28;20037;-91
2022/08/22 12:59:50;;;;;;;8.20;2.45;;;22.50;73.90;;;;;;5052940;28;20021;-90
2022/08/22 13:02:27;;;;;;;5.45;2.00;;;22.50;73.70;;;;;;5053267;28;20086;-92
2022/08/22 13:05:12;;;;;;;8.05;2.35;;;22.60;73.60;;;;;;5052565;28;20043;-90
2022/08/22 13:07:41;;;;;;;7.90;2.40;;;22.70;73.90;;;;;;5052370;28;20055;-89
2022/08/22 13:10:35;;;;;;;6.38;2.08;;;22.80;73.10;;;;;;5052356;28;20025;-90
2022/08/22 13:13:02;;;;;;;5.63;1.80;;;23.00;72.60;;;;;;5053236;28;20033;-89
2022/08/22 13:15:34;;;;;;;4.30;2.15;;;23.20;72.30;;;;;;5052296;28;20160;-91
2022/08/22 13:18:06;;;;;;;3.40;1.92;;;23.40;71.90;;;;;;5052026;28;20067;-88
2022/08/22 13:20:33;;;;;;;5.97;2.15;;;23.50;71.20;;;;;;5052494;28;20025;-91
2022/08/22 13:23:05;;;;;;;5.10;2.13;;;23.50;70.30;;;;;;5051626;28;20148;-90
2022/08/22 13:25:55;;;;;;;5.43;1.98;;;23.60;70.20;;;;;;5052462;28;20021;-90
2022/08/22 13:28:23;;;;;;;5.88;2.28;;;23.50;69.50;;;;;;5052680;28;20029;-90
2022/08/22 13:30:52;;;;;;;6.13;2.28;;;23.50;69.60;;;;;;5057648;28;20506;-91
2022/08/22 13:33:26;;;;;;;5.70;1.98;;;23.60;69.90;;;;;;5057546;28;20044;-90
2022/08/22 13:36:05;;;;;;;6.95;2.10;;;23.60;69.60;;;;;;5061874;28;20035;-89
2022/08/22 13:38:54;;;;;;;8.30;2.20;;;23.60;69.50;;;;;;5059334;28;20175;-91
2022/08/22 13:41:28;;;;;;;6.43;2.03;;;23.50;69.60;;;;;;5056026;28;20083;-90
2022/08/22 13:44:06;;;;;;;6.68;2.03;;;23.50;69.80;;;;;;5056015;28;20271;-90
2022/08/22 13:46:35;;;;;;;3.97;1.83;;;23.40;69.60;;;;;;5055711;28;20104;-89
2022/08/22 13:49:04;;;;;;;4.22;1.42;;;23.30;69.60;;;;;;5056330;28;20037;-90
2022/08/22 13:51:35;;;;;;;4.30;1.42;;;23.20;69.60;;;;;;5056236;28;20171;-92
2022/08/22 13:54:06;;;;;;;3.40;1.70;;;23.10;69.90;;;;;;5055967;28;20128;-90
2022/08/22 13:56:50;;;;;;;2.40;1.25;;;22.90;70.30;;;;;;5055789;28;20025;-89
2022/08/22 13:59:50;;;;;;;6.55;1.70;;;22.80;70.90;;;;;;5056109;28;20074;-90
2022/08/22 14:02:44;;;;;;;9.57;1.70;;;22.70;71.60;;;;;;5055735;28;20067;-90
2022/08/22 14:05:21;;;;;;;6.63;2.15;;;22.60;72.40;;;;;;5056235;28;20264;-93